Time;durP1;ratioP1;P1;durP2;ratioP2;P2;SDS_P1;SDS_P2;PMS_P1;PMS_P2;Temp;Humidity;BMP_temperature;BMP_pressure;BME280_temperature;BME280_humidity;BME280_pressure;Samples;Min_cycle;Max_cycle;Signal;HPM_P1;HPM_P2
2023/10/24 00:00:56;;;;;;;1.25;0.40;;;11.80;99.90;;;;;;5043988;28;20431;-89
2023/10/24 00:03:22;;;;;;;2.05;0.40;;;11.90;99.90;;;;;;5059766;28;20033;-93
2023/10/24 00:05:48;;;;;;;1.20;0.40;;;11.80;99.90;;;;;;5043086;28;20088;-90
2023/10/24 00:08:14;;;;;;;1.35;0.40;;;11.80;99.90;;;;;;5046187;28;20054;-89
2023/10/24 00:10:39;;;;;;;0.77;0.28;;;11.80;99.90;;;;;;5054076;28;20021;-92
2023/10/24 00:13:05;;;;;;;0.95;0.30;;;11.80;99.90;;;;;;5028020;28;20381;-91
2023/10/24 00:15:31;;;;;;;2.30;0.68;;;11.80;99.90;;;;;;5042804;28;20056;-92
2023/10/24 00:17:56;;;;;;;1.17;0.30;;;11.80;99.90;;;;;;5041979;28;20078;-93
2023/10/24 00:20:22;;;;;;;1.65;0.40;;;11.80;99.90;;;;;;5042997;28;20706;-89
2023/10/24 00:22:48;;;;;;;1.45;0.40;;;11.80;99.90;;;;;;5062072;28;20503;-91
2023/10/24 00:25:14;;;;;;;1.88;0.40;;;11.80;99.90;;;;;;5041726;28;20052;-92
2023/10/24 00:27:39;;;;;;;1.45;0.30;;;11.80;99.90;;;;;;5040229;28;20143;-95
2023/10/24 00:30:05;;;;;;;0.70;0.30;;;11.80;99.90;;;;;;5058815;28;20039;-90
2023/10/24 00:32:31;;;;;;;1.60;0.40;;;11.80;99.90;;;;;;5059845;28;20037;-91
2023/10/24 00:34:57;;;;;;;1.13;0.30;;;11.80;99.90;;;;;;5060420;28;20037;-92
2023/10/24 00:37:23;;;;;;;1.25;0.38;;;11.80;99.90;;;;;;5043395;28;20021;-93
2023/10/24 00:39:48;;;;;;;1.70;0.40;;;11.80;99.90;;;;;;5043203;28;20029;-93
2023/10/24 00:42:14;;;;;;;1.50;0.50;;;11.80;99.90;;;;;;5028165;28;20029;-93
2023/10/24 00:44:41;;;;;;;1.27;0.40;;;11.80;99.90;;;;;;5040790;28;20045;-92
2023/10/24 00:47:07;;;;;;;1.30;0.50;;;11.80;99.90;;;;;;5043845;28;20538;-92
2023/10/24 00:49:33;;;;;;;1.63;0.40;;;11.80;99.90;;;;;;5046253;28;20033;-91
2023/10/24 00:51:59;;;;;;;1.30;0.40;;;11.70;99.90;;;;;;5058836;28;20028;-90
2023/10/24 00:54:28;;;;;;;1.20;0.40;;;11.80;99.90;;;;;;5058454;28;20063;-89
2023/10/24 00:56:55;;;;;;;1.40;0.50;;;11.90;99.90;;;;;;5043658;28;20108;-89
2023/10/24 00:59:23;;;;;;;1.15;0.30;;;11.80;99.90;;;;;;5043086;28;20033;-90
2023/10/24 01:01:49;;;;;;;2.58;0.50;;;11.80;99.90;;;;;;5047758;28;20107;-91
2023/10/24 01:04:18;;;;;;;1.40;0.30;;;11.80;99.90;;;;;;5026841;28;20037;-89
2023/10/24 01:06:44;;;;;;;2.60;0.50;;;11.90;99.90;;;;;;5060187;28;20064;-89
2023/10/24 01:09:10;;;;;;;2.40;0.70;;;11.90;99.90;;;;;;5044284;28;20511;-92
2023/10/24 01:11:37;;;;;;;1.55;0.40;;;11.90;99.90;;;;;;5024388;28;20025;-92
2023/10/24 01:14:03;;;;;;;1.15;0.40;;;11.90;99.90;;;;;;5043386;28;20021;-89
2023/10/24 01:16:32;;;;;;;1.67;0.60;;;11.80;99.90;;;;;;5043602;28;20043;-92
2023/10/24 01:18:58;;;;;;;0.80;0.30;;;11.90;99.90;;;;;;5046210;28;20013;-89
2023/10/24 01:21:23;;;;;;;2.22;0.50;;;11.90;99.90;;;;;;5043024;28;20083;-91
2023/10/24 01:23:49;;;;;;;3.10;1.15;;;11.90;99.90;;;;;;5035446;28;20072;-92
2023/10/24 01:26:17;;;;;;;1.38;0.50;;;11.90;99.90;;;;;;5055622;28;20037;-93
2023/10/24 01:28:45;;;;;;;1.50;0.68;;;11.90;99.90;;;;;;5053615;28;20272;-92
2023/10/24 01:31:11;;;;;;;2.00;0.68;;;11.90;99.90;;;;;;5044928;28;20368;-91
2023/10/24 01:33:37;;;;;;;1.83;0.50;;;11.90;99.90;;;;;;5042969;28;20033;-90
2023/10/24 01:36:02;;;;;;;1.75;0.70;;;11.90;99.90;;;;;;5027862;28;20025;-94
2023/10/24 01:38:28;;;;;;;2.47;0.70;;;11.90;99.90;;;;;;5040492;28;20111;-93
2023/10/24 01:40:54;;;;;;;2.15;0.65;;;12.00;99.90;;;;;;5054139;28;20125;-91
2023/10/24 01:43:19;;;;;;;2.55;1.00;;;11.90;99.90;;;;;;5043777;28;20056;-90
2023/10/24 01:45:45;;;;;;;1.63;0.50;;;12.00;99.90;;;;;;5055843;28;20083;-90
2023/10/24 01:48:11;;;;;;;1.50;0.50;;;11.90;99.90;;;;;;5037394;28;20460;-89
2023/10/24 01:50:37;;;;;;;2.00;0.60;;;12.00;99.90;;;;;;5061261;28;20037;-90
2023/10/24 01:53:02;;;;;;;1.20;0.50;;;11.90;99.90;;;;;;5029242;28;20021;-89
2023/10/24 01:55:28;;;;;;;1.08;0.55;;;11.90;99.90;;;;;;5045864;28;20033;-90
2023/10/24 01:57:54;;;;;;;1.42;0.40;;;11.90;99.90;;;;;;5042853;28;20017;-91
2023/10/24 02:00:20;;;;;;;1.50;0.60;;;11.90;99.90;;;;;;5027087;28;20068;-89
2023/10/24 02:02:45;;;;;;;3.00;0.77;;;11.90;99.90;;;;;;5041482;28;20033;-92
2023/10/24 02:05:12;;;;;;;2.55;0.70;;;11.90;99.90;;;;;;5042252;28;20175;-88
2023/10/24 02:07:38;;;;;;;2.22;0.73;;;11.90;99.90;;;;;;5060079;28;20059;-92
2023/10/24 02:10:05;;;;;;;2.55;0.90;;;11.90;99.90;;;;;;5051006;28;20033;-90
2023/10/24 02:12:31;;;;;;;2.25;0.80;;;11.90;99.90;;;;;;5044088;28;20395;-89
2023/10/24 02:14:57;;;;;;;1.20;0.60;;;11.90;99.90;;;;;;5045109;28;20025;-92
2023/10/24 02:17:22;;;;;;;1.48;0.55;;;11.90;99.90;;;;;;5059739;28;20033;-91
2023/10/24 02:19:49;;;;;;;1.30;0.50;;;11.90;99.90;;;;;;5056151;28;20053;-88
2023/10/24 02:22:15;;;;;;;2.55;0.70;;;11.80;99.90;;;;;;5025324;28;20075;-88
2023/10/24 02:24:40;;;;;;;2.10;0.65;;;11.90;99.90;;;;;;5043524;28;20041;-90
2023/10/24 02:27:06;;;;;;;1.95;0.90;;;11.90;99.90;;;;;;5054145;28;20021;-89
2023/10/24 02:29:33;;;;;;;1.48;0.60;;;11.80;99.90;;;;;;5052596;28;20032;-90
2023/10/24 02:32:03;;;;;;;2.95;0.88;;;11.80;99.90;;;;;;5042031;28;20507;-91
2023/10/24 02:34:29;;;;;;;2.20;1.08;;;11.80;99.90;;;;;;5047883;28;20032;-90
2023/10/24 02:36:55;;;;;;;1.90;0.90;;;11.80;99.90;;;;;;5057044;28;20021;-88
2023/10/24 02:39:20;;;;;;;1.33;0.60;;;11.80;99.90;;;;;;5057033;28;20068;-90
2023/10/24 02:41:46;;;;;;;3.75;0.70;;;11.80;99.90;;;;;;5054404;28;20116;-93
2023/10/24 02:44:12;;;;;;;1.83;0.60;;;11.80;99.90;;;;;;5050886;28;20114;-90
2023/10/24 02:46:38;;;;;;;1.60;0.60;;;11.80;99.90;;;;;;5058096;28;20041;-92
2023/10/24 02:49:04;;;;;;;1.90;0.60;;;11.70;99.90;;;;;;5061633;28;20028;-90
2023/10/24 02:51:29;;;;;;;1.70;0.90;;;11.70;99.90;;;;;;5044769;28;20095;-91
2023/10/24 02:53:55;;;;;;;1.35;0.70;;;11.70;99.90;;;;;;5047946;28;20103;-90
2023/10/24 02:56:20;;;;;;;1.60;0.70;;;11.70;99.90;;;;;;5047950;28;20037;-89
2023/10/24 02:58:46;;;;;;;2.42;0.60;;;11.70;99.90;;;;;;5041119;28;20040;-91
2023/10/24 03:01:12;;;;;;;1.70;0.82;;;11.70;99.90;;;;;;5045011;28;20041;-90
2023/10/24 03:03:38;;;;;;;2.30;1.40;;;11.70;99.90;;;;;;5045731;28;20075;-92
2023/10/24 03:06:14;;;;;;;1.85;0.80;;;11.70;99.90;;;;;;5047381;28;20025;-92
2023/10/24 03:08:39;;;;;;;2.42;0.90;;;11.70;99.90;;;;;;5046086;28;20112;-90
2023/10/24 03:11:05;;;;;;;2.30;0.70;;;11.70;99.90;;;;;;5028597;28;20053;-89
2023/10/24 03:13:30;;;;;;;2.38;0.60;;;11.70;99.90;;;;;;5029777;28;20017;-89
2023/10/24 03:16:05;;;;;;;1.35;0.70;;;11.70;99.90;;;;;;5062286;28;20070;-90
2023/10/24 03:18:32;;;;;;;2.20;0.60;;;11.70;99.90;;;;;;5051266;28;20488;-89
2023/10/24 03:20:59;;;;;;;1.48;0.50;;;11.70;99.90;;;;;;5039026;28;20024;-88
2023/10/24 03:23:24;;;;;;;1.45;0.63;;;11.70;99.90;;;;;;5039681;28;20025;-89
2023/10/24 03:25:51;;;;;;;2.22;0.60;;;11.70;99.90;;;;;;5044868;28;20393;-88
2023/10/24 03:28:17;;;;;;;1.35;0.50;;;11.70;99.90;;;;;;5045046;28;20039;-91
2023/10/24 03:30:43;;;;;;;1.52;0.50;;;11.70;99.90;;;;;;5060911;28;20025;-91
2023/10/24 03:33:09;;;;;;;2.00;0.90;;;11.70;99.90;;;;;;5059318;28;20071;-94
2023/10/24 03:35:36;;;;;;;1.35;0.70;;;11.70;99.90;;;;;;5044125;28;20040;-91
2023/10/24 03:38:02;;;;;;;3.83;1.02;;;11.70;99.90;;;;;;5060664;28;20028;-89
2023/10/24 03:40:28;;;;;;;1.88;0.90;;;11.70;99.90;;;;;;5028585;28;20033;-89
2023/10/24 03:42:54;;;;;;;2.58;0.82;;;11.70;99.90;;;;;;5054524;28;20533;-88
2023/10/24 03:45:20;;;;;;;2.60;1.20;;;11.70;99.90;;;;;;5043967;28;20136;-94
2023/10/24 03:47:48;;;;;;;2.97;1.17;;;11.70;99.90;;;;;;5038456;28;20627;-91
2023/10/24 03:50:17;;;;;;;2.88;1.10;;;11.70;99.90;;;;;;5060011;28;20029;-90
2023/10/24 03:52:42;;;;;;;2.30;1.10;;;11.70;99.90;;;;;;5042762;28;20026;-90
2023/10/24 03:55:12;;;;;;;3.15;1.55;;;11.70;99.90;;;;;;5055926;28;20036;-91
2023/10/24 03:57:40;;;;;;;1.83;0.90;;;11.70;99.90;;;;;;5060045;28;20083;-91
2023/10/24 04:00:08;;;;;;;1.90;0.93;;;11.70;99.90;;;;;;5043323;28;20059;-90
2023/10/24 04:02:38;;;;;;;1.70;0.70;;;11.70;99.90;;;;;;5043479;28;20330;-91
2023/10/24 04:05:04;;;;;;;1.92;0.70;;;11.70;99.90;;;;;;5045553;28;20041;-91
2023/10/24 04:07:29;;;;;;;1.88;0.73;;;11.70;99.90;;;;;;5051927;28;20013;-91
2023/10/24 04:09:56;;;;;;;1.55;0.60;;;11.70;99.90;;;;;;5042023;28;20033;-91
2023/10/24 04:12:22;;;;;;;2.65;1.17;;;11.70;99.90;;;;;;5029759;28;20147;-91
2023/10/24 04:14:48;;;;;;;1.60;0.88;;;11.70;99.90;;;;;;5047154;28;20127;-90
2023/10/24 04:17:13;;;;;;;2.67;1.17;;;11.60;99.90;;;;;;5050603;28;20025;-91
2023/10/24 04:19:39;;;;;;;2.45;1.05;;;11.60;99.90;;;;;;5044819;28;20045;-92
2023/10/24 04:22:05;;;;;;;3.63;1.45;;;11.70;99.90;;;;;;5045034;28;20580;-93
2023/10/24 04:24:30;;;;;;;2.47;1.10;;;11.60;99.90;;;;;;5041255;28;20056;-91
2023/10/24 04:26:57;;;;;;;2.03;0.80;;;11.70;99.90;;;;;;5057030;28;20109;-90
2023/10/24 04:29:23;;;;;;;1.88;0.90;;;11.70;99.90;;;;;;5044016;28;20025;-90
2023/10/24 04:31:49;;;;;;;1.88;0.63;;;11.60;99.90;;;;;;5029720;28;20079;-91
2023/10/24 04:34:15;;;;;;;1.92;0.80;;;11.60;99.90;;;;;;5056534;28;20033;-90
2023/10/24 04:36:40;;;;;;;1.30;0.60;;;11.60;99.90;;;;;;5043270;28;20029;-92
2023/10/24 04:39:06;;;;;;;2.70;1.00;;;11.60;99.90;;;;;;5043339;28;20029;-91
2023/10/24 04:41:32;;;;;;;1.80;1.00;;;11.60;99.90;;;;;;5046281;28;20033;-91
2023/10/24 04:43:58;;;;;;;1.40;0.73;;;11.50;99.90;;;;;;5057798;28;20033;-90
2023/10/24 04:46:23;;;;;;;2.47;0.80;;;11.50;99.90;;;;;;5041210;28;20033;-92
2023/10/24 04:48:49;;;;;;;2.40;1.30;;;11.50;99.90;;;;;;5043830;28;20025;-90
2023/10/24 04:51:15;;;;;;;2.38;1.20;;;11.50;99.90;;;;;;5029927;28;20025;-93
2023/10/24 04:53:41;;;;;;;3.05;1.00;;;11.50;99.90;;;;;;5042937;28;20473;-89
2023/10/24 04:56:07;;;;;;;1.55;0.90;;;11.50;99.90;;;;;;5061573;28;20482;-93
2023/10/24 04:58:32;;;;;;;1.88;0.70;;;11.50;99.90;;;;;;5060026;28;20025;-90
2023/10/24 05:00:59;;;;;;;3.55;0.90;;;11.50;99.90;;;;;;5040271;28;20021;-91
2023/10/24 05:03:24;;;;;;;3.33;1.40;;;11.50;99.90;;;;;;5059020;28;20036;-91
2023/10/24 05:05:50;;;;;;;2.78;0.98;;;11.40;99.90;;;;;;5054339;28;20405;-93
2023/10/24 05:08:16;;;;;;;2.00;0.85;;;11.40;99.90;;;;;;5044400;28;20109;-92
2023/10/24 05:10:41;;;;;;;1.80;0.80;;;11.50;99.90;;;;;;5062509;28;20222;-90
2023/10/24 05:13:07;;;;;;;2.45;0.90;;;11.40;99.90;;;;;;5043078;28;20418;-90
2023/10/24 05:15:33;;;;;;;1.65;0.80;;;11.40;99.90;;;;;;5026058;28;20359;-93
2023/10/24 05:17:59;;;;;;;1.80;0.80;;;11.40;99.90;;;;;;5044960;28;20465;-93
2023/10/24 05:20:24;;;;;;;2.10;0.80;;;11.40;99.90;;;;;;5040390;28;20029;-92
2023/10/24 05:22:50;;;;;;;2.65;0.95;;;11.40;99.90;;;;;;5041828;28;20037;-90
2023/10/24 05:25:16;;;;;;;2.47;1.35;;;11.40;99.90;;;;;;5041663;28;20029;-90
2023/10/24 05:27:42;;;;;;;2.40;1.08;;;11.40;99.90;;;;;;5044088;28;20432;-91
2023/10/24 05:30:10;;;;;;;1.60;0.90;;;11.40;99.90;;;;;;5059153;28;20041;-91
2023/10/24 05:32:36;;;;;;;2.45;1.42;;;11.40;99.90;;;;;;5022201;28;20033;-88
2023/10/24 05:35:02;;;;;;;2.40;1.08;;;11.40;99.90;;;;;;5057664;28;20075;-91
2023/10/24 05:37:28;;;;;;;2.28;1.42;;;11.40;99.90;;;;;;5042964;28;20295;-93
2023/10/24 05:39:54;;;;;;;2.42;1.10;;;11.40;99.90;;;;;;5057056;28;20435;-93
2023/10/24 05:42:20;;;;;;;2.78;1.80;;;11.40;99.90;;;;;;5045746;28;20362;-89
2023/10/24 05:44:45;;;;;;;2.38;1.45;;;11.40;99.90;;;;;;5040792;28;20236;-92
2023/10/24 05:47:11;;;;;;;2.05;1.25;;;11.40;99.90;;;;;;5058318;28;20163;-91
2023/10/24 05:49:37;;;;;;;2.40;1.38;;;11.40;99.90;;;;;;5036864;28;20569;-92
2023/10/24 05:52:03;;;;;;;2.40;1.50;;;11.40;99.90;;;;;;5054144;28;20040;-89
2023/10/24 05:54:28;;;;;;;3.63;2.33;;;11.30;99.90;;;;;;5026537;28;20027;-89
2023/10/24 05:56:54;;;;;;;4.57;2.83;;;11.30;99.90;;;;;;5024188;28;20846;-93
2023/10/24 05:59:20;;;;;;;2.50;1.80;;;11.30;99.90;;;;;;5040357;28;20025;-93
2023/10/24 06:01:45;;;;;;;2.95;1.70;;;11.30;99.90;;;;;;5041391;28;20374;-90
2023/10/24 06:04:11;;;;;;;3.40;1.90;;;11.30;99.90;;;;;;5059449;28;20114;-89
2023/10/24 06:06:37;;;;;;;4.32;2.58;;;11.30;99.90;;;;;;5042578;28;20170;-89
2023/10/24 06:09:03;;;;;;;4.10;3.20;;;11.30;99.90;;;;;;5055897;28;20041;-91
2023/10/24 06:11:28;;;;;;;3.40;2.33;;;11.30;99.90;;;;;;5046008;28;20244;-88
2023/10/24 06:13:54;;;;;;;2.55;1.48;;;11.30;99.90;;;;;;5056689;28;20067;-89
2023/10/24 06:16:20;;;;;;;2.83;1.40;;;11.30;99.90;;;;;;5046072;28;20384;-88
2023/10/24 06:18:45;;;;;;;2.45;1.40;;;11.30;99.90;;;;;;5043698;28;20025;-92
2023/10/24 06:21:20;;;;;;;2.15;1.00;;;11.30;99.90;;;;;;5053581;28;20037;-92
2023/10/24 06:23:46;;;;;;;3.42;1.52;;;11.30;99.90;;;;;;5045371;28;20237;-92
2023/10/24 06:26:16;;;;;;;4.32;2.67;;;11.30;99.90;;;;;;5058059;28;20102;-90
2023/10/24 06:28:43;;;;;;;3.50;1.90;;;11.30;99.90;;;;;;5064994;28;20032;-91
2023/10/24 06:31:08;;;;;;;2.42;1.42;;;11.30;99.90;;;;;;5055563;28;20488;-88
2023/10/24 06:33:34;;;;;;;2.75;1.10;;;11.30;99.90;;;;;;5055560;28;20021;-88
2023/10/24 06:36:00;;;;;;;3.35;1.20;;;11.30;99.90;;;;;;5046070;28;20032;-89
2023/10/24 06:38:26;;;;;;;2.60;1.73;;;11.30;99.90;;;;;;5045528;28;20709;-92
2023/10/24 06:40:51;;;;;;;3.03;1.48;;;11.20;99.90;;;;;;5062494;28;20457;-88
2023/10/24 06:43:18;;;;;;;2.53;1.88;;;11.20;99.90;;;;;;5056772;28;20071;-93
2023/10/24 06:45:45;;;;;;;2.80;2.17;;;11.30;99.90;;;;;;5045128;28;20128;-88
2023/10/24 06:48:12;;;;;;;2.45;1.50;;;11.20;99.90;;;;;;5061588;28;20079;-91
2023/10/24 06:50:39;;;;;;;2.58;1.42;;;11.20;99.90;;;;;;5046289;28;20119;-91
2023/10/24 06:53:05;;;;;;;2.53;1.23;;;11.20;99.90;;;;;;5044136;28;20029;-90
2023/10/24 06:55:31;;;;;;;1.77;0.90;;;11.20;99.90;;;;;;5027496;28;20569;-88
2023/10/24 06:57:58;;;;;;;1.67;0.65;;;11.20;99.90;;;;;;5043659;28;20029;-88
2023/10/24 07:00:25;;;;;;;1.70;0.70;;;11.20;99.90;;;;;;5052752;28;20437;-91
2023/10/24 07:02:51;;;;;;;1.65;0.70;;;11.30;99.90;;;;;;5062439;28;20024;-90
2023/10/24 07:05:18;;;;;;;2.63;0.90;;;11.30;99.90;;;;;;5046072;28;20156;-87
2023/10/24 07:07:43;;;;;;;1.52;0.80;;;11.20;99.90;;;;;;5046894;28;20025;-92
2023/10/24 07:10:09;;;;;;;1.67;0.90;;;11.20;99.90;;;;;;5063336;28;20552;-89
2023/10/24 07:12:35;;;;;;;1.80;0.90;;;11.20;99.90;;;;;;5058532;28;20028;-90
2023/10/24 07:15:03;;;;;;;1.70;1.00;;;11.20;99.90;;;;;;5045328;28;20029;-91
2023/10/24 07:17:30;;;;;;;1.65;0.88;;;11.20;99.90;;;;;;5061752;28;20032;-90
2023/10/24 07:19:58;;;;;;;1.67;0.60;;;11.20;99.90;;;;;;5042449;28;20025;-89
2023/10/24 07:22:24;;;;;;;1.33;0.65;;;11.20;99.90;;;;;;5055002;28;20022;-92
2023/10/24 07:24:50;;;;;;;1.02;0.47;;;11.10;99.90;;;;;;5053881;28;20033;-90
2023/10/24 07:27:15;;;;;;;0.85;0.40;;;11.10;99.90;;;;;;5046456;28;20040;-87
2023/10/24 07:29:41;;;;;;;1.33;0.70;;;11.00;99.90;;;;;;5044765;28;20033;-88
2023/10/24 07:32:07;;;;;;;1.20;0.50;;;11.10;99.90;;;;;;5061852;28;20488;-86
2023/10/24 07:34:33;;;;;;;1.35;0.75;;;11.10;99.90;;;;;;5046156;28;20029;-87
2023/10/24 07:36:59;;;;;;;1.60;0.70;;;11.10;99.90;;;;;;5045201;28;20070;-89
2023/10/24 07:39:25;;;;;;;1.00;0.50;;;11.10;99.90;;;;;;5037804;28;20073;-91
2023/10/24 07:41:51;;;;;;;1.10;0.40;;;11.00;99.90;;;;;;5026993;28;20090;-90
2023/10/24 07:44:17;;;;;;;1.48;0.50;;;11.10;99.90;;;;;;5052102;28;20041;-90
2023/10/24 07:46:43;;;;;;;1.17;0.40;;;11.10;99.90;;;;;;5044090;28;20033;-92
2023/10/24 07:49:08;;;;;;;1.20;0.50;;;11.10;99.90;;;;;;5045429;28;20053;-87
2023/10/24 07:51:36;;;;;;;1.60;0.63;;;11.20;99.90;;;;;;5053273;28;20062;-87
2023/10/24 07:54:03;;;;;;;1.63;0.80;;;11.20;99.90;;;;;;5044643;28;20537;-92
2023/10/24 07:56:28;;;;;;;4.05;1.05;;;11.20;99.90;;;;;;5060943;28;20033;-89
2023/10/24 07:58:54;;;;;;;1.80;0.80;;;11.20;99.90;;;;;;5048597;28;20091;-88
2023/10/24 08:01:20;;;;;;;1.65;0.88;;;11.30;99.90;;;;;;5055043;28;20025;-89
2023/10/24 08:03:46;;;;;;;1.77;0.70;;;11.40;99.90;;;;;;5036385;28;20026;-87
2023/10/24 08:06:12;;;;;;;2.17;1.20;;;11.40;99.90;;;;;;5046719;28;20033;-87
2023/10/24 08:08:39;;;;;;;3.00;1.58;;;11.40;99.90;;;;;;5053127;28;20067;-88
2023/10/24 08:11:05;;;;;;;4.35;1.20;;;11.40;99.90;;;;;;5037897;28;20036;-86
2023/10/24 08:13:31;;;;;;;3.10;1.83;;;11.50;99.90;;;;;;5042801;28;20029;-88
2023/10/24 08:15:58;;;;;;;2.83;1.35;;;11.50;99.90;;;;;;5039856;28;20033;-86
2023/10/24 08:18:27;;;;;;;2.58;1.25;;;11.60;99.90;;;;;;5054709;28;20121;-91
2023/10/24 08:20:56;;;;;;;3.42;1.95;;;11.80;99.90;;;;;;5036201;28;20036;-90
2023/10/24 08:23:21;;;;;;;3.70;2.10;;;11.80;99.90;;;;;;5038339;28;20102;-90
2023/10/24 08:25:47;;;;;;;2.47;1.60;;;11.80;99.90;;;;;;5049995;28;20504;-88
2023/10/24 08:28:13;;;;;;;4.10;2.08;;;12.00;99.90;;;;;;5045982;28;20043;-86
2023/10/24 08:30:38;;;;;;;2.88;2.33;;;12.00;99.90;;;;;;5053625;28;20029;-87
2023/10/24 08:33:04;;;;;;;3.05;2.30;;;12.10;99.90;;;;;;5046789;28;20189;-88
2023/10/24 08:35:30;;;;;;;4.25;3.38;;;12.10;99.90;;;;;;5055334;28;20656;-90
2023/10/24 08:37:55;;;;;;;3.85;2.40;;;12.30;99.90;;;;;;5055289;28;20022;-85
2023/10/24 08:40:21;;;;;;;4.55;3.17;;;12.50;99.90;;;;;;5036120;28;20044;-86
2023/10/24 08:42:47;;;;;;;3.83;2.55;;;12.40;99.90;;;;;;5035473;28;20461;-85
2023/10/24 08:45:17;;;;;;;3.95;2.95;;;12.30;99.90;;;;;;5043182;28;20500;-86
2023/10/24 08:47:45;;;;;;;4.25;2.70;;;12.30;99.90;;;;;;5025808;28;20272;-88
2023/10/24 08:50:11;;;;;;;3.33;1.73;;;12.40;99.90;;;;;;5048132;28;20054;-84
2023/10/24 08:52:37;;;;;;;4.13;3.00;;;12.40;99.90;;;;;;5037697;28;20104;-88
2023/10/24 08:55:04;;;;;;;4.15;2.53;;;12.30;99.90;;;;;;5039032;28;20053;-90
2023/10/24 08:57:34;;;;;;;4.47;3.20;;;12.30;99.90;;;;;;5052587;28;20024;-88
2023/10/24 09:00:01;;;;;;;2.97;2.55;;;12.30;99.90;;;;;;5038228;28;20021;-87
2023/10/24 09:02:27;;;;;;;4.55;3.00;;;12.30;99.90;;;;;;5054087;28;20091;-88
2023/10/24 09:04:54;;;;;;;3.15;2.30;;;12.30;99.90;;;;;;5039683;28;20059;-90
2023/10/24 09:07:20;;;;;;;5.38;3.00;;;12.30;99.90;;;;;;5045337;28;20183;-87
2023/10/24 09:09:45;;;;;;;4.65;3.80;;;12.30;99.90;;;;;;5055636;28;20524;-87
2023/10/24 09:12:14;;;;;;;4.32;3.55;;;12.40;99.90;;;;;;5055697;28;20029;-86
2023/10/24 09:14:47;;;;;;;4.25;3.55;;;12.40;99.90;;;;;;5053954;28;20029;-86
2023/10/24 09:17:15;;;;;;;4.85;3.20;;;12.50;99.90;;;;;;5033616;28;20091;-87
2023/10/24 09:19:41;;;;;;;3.83;3.13;;;12.50;99.90;;;;;;5035358;28;20056;-88
2023/10/24 09:22:07;;;;;;;9.77;3.90;;;12.60;99.90;;;;;;5036520;28;20044;-88
2023/10/24 09:24:35;;;;;;;4.80;3.17;;;12.70;99.90;;;;;;5037485;28;20480;-85
2023/10/24 09:27:01;;;;;;;3.97;2.78;;;13.10;99.90;;;;;;5053484;28;20036;-89
2023/10/24 09:29:27;;;;;;;3.53;2.70;;;13.20;99.90;;;;;;5033866;28;20041;-88
2023/10/24 09:31:54;;;;;;;3.28;2.20;;;13.40;99.90;;;;;;5032138;28;20029;-87
2023/10/24 09:34:20;;;;;;;4.40;2.25;;;13.40;99.90;;;;;;5031825;28;20041;-87
2023/10/24 09:36:47;;;;;;;3.03;2.38;;;13.50;99.90;;;;;;5046865;28;20039;-87
2023/10/24 09:39:13;;;;;;;3.30;1.80;;;13.50;99.90;;;;;;5046221;28;20646;-87
2023/10/24 09:41:47;;;;;;;2.55;1.55;;;13.80;99.90;;;;;;5022057;28;20368;-86
2023/10/24 09:44:20;;;;;;;3.45;2.25;;;14.00;99.90;;;;;;5037383;28;20666;-87
2023/10/24 09:46:46;;;;;;;2.53;1.48;;;13.90;99.90;;;;;;5022461;28;20028;-88
2023/10/24 09:49:13;;;;;;;3.20;2.15;;;13.90;99.90;;;;;;5031199;28;20033;-88
2023/10/24 09:51:39;;;;;;;2.58;1.00;;;14.00;99.90;;;;;;5010907;28;20557;-88
2023/10/24 09:54:13;;;;;;;3.80;1.88;;;14.10;99.90;;;;;;5021048;28;20029;-86
2023/10/24 09:56:48;;;;;;;2.38;1.35;;;14.10;99.90;;;;;;5046121;28;20033;-85
2023/10/24 09:59:13;;;;;;;3.83;1.33;;;14.00;99.90;;;;;;5009039;28;20040;-85
2023/10/24 10:01:40;;;;;;;4.15;1.40;;;13.80;99.90;;;;;;5040579;28;20087;-89
2023/10/24 10:04:06;;;;;;;2.70;1.52;;;13.70;99.90;;;;;;5017648;28;20043;-88
2023/10/24 10:06:34;;;;;;;2.55;1.30;;;13.70;99.90;;;;;;5042709;28;20381;-85
2023/10/24 10:09:01;;;;;;;3.88;1.92;;;13.70;99.90;;;;;;5050681;28;20124;-84
2023/10/24 10:11:27;;;;;;;2.38;1.15;;;13.50;99.90;;;;;;5051505;28;20033;-88
2023/10/24 10:14:28;;;;;;;2.58;0.70;;;13.60;99.90;;;;;;5012984;28;20045;-85
2023/10/24 10:17:29;;;;;;;2.42;1.10;;;13.60;99.90;;;;;;5033504;28;20044;-88
2023/10/24 10:20:22;;;;;;;1.88;0.90;;;13.70;99.90;;;;;;5038768;28;20083;-85
2023/10/24 10:23:15;;;;;;;1.98;0.90;;;13.60;99.90;;;;;;5034268;28;20026;-86
2023/10/24 10:26:03;;;;;;;2.72;0.70;;;13.60;99.90;;;;;;5019252;28;20459;-86
2023/10/24 10:28:54;;;;;;;1.88;0.80;;;13.60;99.90;;;;;;5051676;28;20037;-88
2023/10/24 10:31:50;;;;;;;1.98;0.60;;;13.60;99.90;;;;;;5025666;28;20538;-87
2023/10/24 10:34:49;;;;;;;;;;;;;;;;;;;;;
2023/10/24 10:37:18;;;;;;;2.38;0.60;;;13.70;99.90;;;;;;5032560;28;20041;-85
2023/10/24 10:40:15;;;;;;;2.05;0.50;;;13.70;99.90;;;;;;5018262;28;20040;-85
2023/10/24 10:42:51;;;;;;;1.60;0.60;;;13.80;99.90;;;;;;5032404;28;20025;-87
2023/10/24 10:45:28;;;;;;;2.17;0.50;;;13.80;99.90;;;;;;5031732;28;20083;-85
2023/10/24 10:47:59;;;;;;;1.30;0.60;;;13.80;99.90;;;;;;5033400;28;20151;-89
2023/10/24 10:50:33;;;;;;;1.58;0.60;;;13.90;99.90;;;;;;5017156;28;20052;-87
2023/10/24 10:52:59;;;;;;;1.88;0.60;;;13.80;99.90;;;;;;5033492;28;20634;-91
2023/10/24 10:55:42;;;;;;;1.38;0.60;;;13.90;99.90;;;;;;5034966;28;20040;-88
2023/10/24 10:58:40;;;;;;;2.33;0.60;;;13.80;99.90;;;;;;5042392;28;20033;-87
2023/10/24 11:01:33;;;;;;;1.92;0.77;;;13.90;99.90;;;;;;5034354;28;20509;-87
2023/10/24 11:03:59;;;;;;;1.77;0.93;;;13.80;99.90;;;;;;5035167;28;20033;-89
2023/10/24 11:06:27;;;;;;;1.38;0.65;;;13.80;99.90;;;;;;5040198;28;20457;-89
2023/10/24 11:09:09;;;;;;;1.52;0.75;;;13.90;99.90;;;;;;5046956;28;20040;-86
2023/10/24 11:11:37;;;;;;;1.50;0.50;;;13.90;99.90;;;;;;5049526;28;20469;-87
2023/10/24 11:14:21;;;;;;;2.78;1.17;;;14.00;99.90;;;;;;5056227;28;20017;-88
2023/10/24 11:16:49;;;;;;;1.40;0.70;;;13.70;99.90;;;;;;5033090;28;20045;-86
2023/10/24 11:19:22;;;;;;;1.40;0.55;;;13.70;99.90;;;;;;5053329;28;20021;-89
2023/10/24 11:21:54;;;;;;;1.27;0.60;;;13.80;99.90;;;;;;5020440;28;20029;-88
2023/10/24 11:24:21;;;;;;;2.08;0.60;;;13.80;99.90;;;;;;5055334;28;20312;-88
2023/10/24 11:26:48;;;;;;;1.73;0.77;;;13.90;99.90;;;;;;5049659;28;20033;-87
2023/10/24 11:29:14;;;;;;;1.00;0.50;;;13.90;99.90;;;;;;5021917;28;20041;-84
2023/10/24 11:31:43;;;;;;;1.42;0.50;;;13.90;99.90;;;;;;5025146;28;20091;-90
2023/10/24 11:34:15;;;;;;;1.10;0.40;;;13.90;99.90;;;;;;5039381;28;20116;-85
2023/10/24 11:36:43;;;;;;;2.25;0.60;;;13.90;99.90;;;;;;5036621;28;20033;-90
2023/10/24 11:39:09;;;;;;;1.50;0.40;;;13.90;99.90;;;;;;5053867;28;20025;-89
2023/10/24 11:41:35;;;;;;;1.63;0.50;;;13.90;99.90;;;;;;5036573;28;20035;-90
2023/10/24 11:44:04;;;;;;;1.60;0.50;;;13.80;99.90;;;;;;5021113;28;20128;-91
2023/10/24 11:46:30;;;;;;;1.20;0.40;;;13.80;99.90;;;;;;5037146;28;20040;-87
2023/10/24 11:48:55;;;;;;;2.05;0.40;;;13.80;99.90;;;;;;5037755;28;20491;-89
2023/10/24 11:51:21;;;;;;;1.88;0.50;;;13.70;99.90;;;;;;5029605;28;20036;-86
2023/10/24 11:53:47;;;;;;;1.10;0.40;;;13.60;99.90;;;;;;5027043;28;20028;-85
2023/10/24 11:56:16;;;;;;;1.02;0.30;;;13.60;99.90;;;;;;5036824;28;20060;-88
2023/10/24 11:58:45;;;;;;;1.75;0.40;;;13.60;99.90;;;;;;5039556;28;20029;-84
2023/10/24 12:01:11;;;;;;;1.50;0.50;;;13.50;99.90;;;;;;5053967;28;20116;-88
2023/10/24 12:03:47;;;;;;;0.75;0.40;;;13.40;99.90;;;;;;5055033;28;20112;-85
2023/10/24 12:06:17;;;;;;;1.48;0.50;;;13.40;99.90;;;;;;5038167;28;20041;-86
2023/10/24 12:08:43;;;;;;;1.13;0.60;;;13.30;99.90;;;;;;5036024;28;20029;-88
2023/10/24 12:11:10;;;;;;;2.42;0.75;;;13.30;99.90;;;;;;5044486;28;20114;-86
2023/10/24 12:13:36;;;;;;;1.50;0.70;;;13.10;99.90;;;;;;5036762;28;20021;-86
2023/10/24 12:16:02;;;;;;;2.58;0.70;;;13.20;99.90;;;;;;5039390;28;20025;-85
2023/10/24 12:18:29;;;;;;;1.70;0.60;;;13.10;99.90;;;;;;5036655;28;20048;-87
2023/10/24 12:20:55;;;;;;;1.50;0.60;;;13.10;99.90;;;;;;5037739;28;20025;-89
2023/10/24 12:23:23;;;;;;;1.95;0.50;;;13.00;99.90;;;;;;5054338;28;20025;-86
2023/10/24 12:25:50;;;;;;;2.47;0.70;;;13.10;99.90;;;;;;5046460;28;20136;-88
2023/10/24 12:29:13;;;;;;;;;;;;;;;;;;;;;
2023/10/24 12:31:57;;;;;;;1.52;0.43;;;13.00;99.90;;;;;;5033534;28;20043;-88
2023/10/24 12:34:58;;;;;;;1.58;0.50;;;12.90;99.90;;;;;;5050632;28;20500;-90
2023/10/24 12:37:37;;;;;;;1.15;0.50;;;12.90;99.90;;;;;;5047959;28;20029;-87
2023/10/24 12:40:04;;;;;;;1.42;0.50;;;12.80;99.90;;;;;;5047527;28;20033;-85
2023/10/24 12:42:35;;;;;;;1.13;0.45;;;12.70;99.90;;;;;;5031713;28;20033;-87
2023/10/24 12:45:01;;;;;;;1.40;0.50;;;12.80;99.90;;;;;;5048256;28;20061;-86
2023/10/24 12:47:27;;;;;;;1.48;0.55;;;12.90;99.90;;;;;;5048781;28;20210;-86
2023/10/24 12:50:16;;;;;;;1.05;0.47;;;12.90;99.90;;;;;;5049789;28;20033;-90
2023/10/24 12:52:43;;;;;;;1.45;0.50;;;12.80;99.90;;;;;;5030774;28;20040;-86